メインページ
METAR-TAF:

METAR-TAF

空港 :

山形空港

山形, 日本

緯度: 38-25N, 経度: 140-22E, 海抜: 105m

現時点の気象観測

当レポートは23分前の07:00(UTC)に作成
東/南東の風 10kt
気温 30°C
湿度 55%
気圧 1011 hPa
視程10km以上
高度2500ftの雲はほとんどない
千切れ雲あり

METAR: RJSC 200700Z 11010KT 9999 FEW025 BKN/// 30/20 Q1011

時間: 16:23 (07:23 UTC)


TAF: 見つかりません

4,000以上の空港の気象観測と天気予報(METAR報とTAF報)

利用可能な観測所は地図上に黄色い丸と赤い丸で示す。

丸の上にカーソルを重ねると観測所名を参照できる。

次にクリックすると気象観測と天気予報を参照できる。

マップの切り替え:黒色「×」印の緑ボタンをクリックして拡大、「-」印の緑ボタンをクリックして縮小、緑色の三角印をクリックして隣りの地図に切り替え


METAR-TAF: